sensor_id;sensor_type;location;lat;lon;timestamp;pressure;altitude;pressure_sealevel;temperature;humidity
15568;BME280;7885;42.596;23.044;2022-08-19T00:00:22;92840.63;;;20.47;74.16
15568;BME280;7885;42.596;23.044;2022-08-19T00:02:49;92833.34;;;20.31;74.88
15568;BME280;7885;42.596;23.044;2022-08-19T00:05:16;92828.38;;;20.17;75.16
15568;BME280;7885;42.596;23.044;2022-08-19T00:07:43;92834.19;;;20.10;76.10
15568;BME280;7885;42.596;23.044;2022-08-19T00:10:11;92841.91;;;20.15;76.30
15568;BME280;7885;42.596;23.044;2022-08-19T00:12:40;92847.13;;;20.22;75.76
15568;BME280;7885;42.596;23.044;2022-08-19T00:15:09;92839.72;;;20.10;75.56
15568;BME280;7885;42.596;23.044;2022-08-19T00:17:37;92862.50;;;20.23;75.77
15568;BME280;7885;42.596;23.044;2022-08-19T00:20:04;92863.41;;;20.20;76.31
15568;BME280;7885;42.596;23.044;2022-08-19T00:22:31;92842.66;;;20.06;76.05
15568;BME280;7885;42.596;23.044;2022-08-19T00:24:58;92866.63;;;20.18;75.58
15568;BME280;7885;42.596;23.044;2022-08-19T00:27:25;92865.56;;;20.16;75.12
15568;BME280;7885;42.596;23.044;2022-08-19T00:29:53;92859.53;;;20.08;75.74
15568;BME280;7885;42.596;23.044;2022-08-19T00:32:20;92852.94;;;20.06;76.38
15568;BME280;7885;42.596;23.044;2022-08-19T00:34:47;92858.13;;;20.04;76.42
15568;BME280;7885;42.596;23.044;2022-08-19T00:37:14;92831.84;;;19.90;76.60
15568;BME280;7885;42.596;23.044;2022-08-19T00:39:40;92851.69;;;20.07;76.42
15568;BME280;7885;42.596;23.044;2022-08-19T00:42:07;92837.72;;;20.01;76.16
15568;BME280;7885;42.596;23.044;2022-08-19T00:44:34;92842.81;;;20.03;76.34
15568;BME280;7885;42.596;23.044;2022-08-19T00:47:02;92832.34;;;19.98;76.06
15568;BME280;7885;42.596;23.044;2022-08-19T00:49:34;92805.84;;;19.70;75.86
15568;BME280;7885;42.596;23.044;2022-08-19T00:52:04;92839.78;;;19.79;76.87
15568;BME280;7885;42.596;23.044;2022-08-19T00:54:35;92838.97;;;19.70;77.86
15568;BME280;7885;42.596;23.044;2022-08-19T00:57:05;92832.50;;;19.63;78.40
15568;BME280;7885;42.596;23.044;2022-08-19T00:59:34;92834.06;;;19.64;79.02
15568;BME280;7885;42.596;23.044;2022-08-19T01:02:03;92842.88;;;19.50;79.84
15568;BME280;7885;42.596;23.044;2022-08-19T01:04:30;92846.72;;;19.53;80.29
15568;BME280;7885;42.596;23.044;2022-08-19T01:10:20;92830.50;;;19.33;79.19
15568;BME280;7885;42.596;23.044;2022-08-19T01:12:48;92841.59;;;19.42;79.84
15568;BME280;7885;42.596;23.044;2022-08-19T01:15:18;92836.78;;;19.34;79.93
15568;BME280;7885;42.596;23.044;2022-08-19T01:17:48;92843.53;;;19.33;80.47
15568;BME280;7885;42.596;23.044;2022-08-19T01:20:21;92813.25;;;19.20;80.77
15568;BME280;7885;42.596;23.044;2022-08-19T01:22:52;92838.94;;;19.39;80.23
15568;BME280;7885;42.596;23.044;2022-08-19T01:25:22;92835.19;;;19.45;79.00
15568;BME280;7885;42.596;23.044;2022-08-19T01:27:51;92829.38;;;19.31;78.66
15568;BME280;7885;42.596;23.044;2022-08-19T01:30:22;92793.84;;;19.02;79.10
15568;BME280;7885;42.596;23.044;2022-08-19T01:32:49;92843.34;;;19.27;78.93
15568;BME280;7885;42.596;23.044;2022-08-19T01:35:16;92839.94;;;19.23;78.47
15568;BME280;7885;42.596;23.044;2022-08-19T01:37:46;92789.16;;;18.90;79.54
15568;BME280;7885;42.596;23.044;2022-08-19T01:40:14;92840.25;;;19.25;80.40
15568;BME280;7885;42.596;23.044;2022-08-19T01:42:41;92835.38;;;19.29;80.97
15568;BME280;7885;42.596;23.044;2022-08-19T01:45:09;92838.28;;;19.04;81.72
15568;BME280;7885;42.596;23.044;2022-08-19T01:47:37;92835.13;;;18.93;81.24
15568;BME280;7885;42.596;23.044;2022-08-19T01:50:07;92834.16;;;18.87;82.09
15568;BME280;7885;42.596;23.044;2022-08-19T01:52:35;92845.91;;;19.00;81.99
15568;BME280;7885;42.596;23.044;2022-08-19T01:55:03;92849.50;;;19.09;82.25
15568;BME280;7885;42.596;23.044;2022-08-19T01:57:31;92850.84;;;19.05;79.68
15568;BME280;7885;42.596;23.044;2022-08-19T01:59:59;92845.28;;;18.96;81.07
15568;BME280;7885;42.596;23.044;2022-08-19T02:02:27;92844.88;;;18.85;80.70
15568;BME280;7885;42.596;23.044;2022-08-19T02:04:54;92832.25;;;18.75;81.10
15568;BME280;7885;42.596;23.044;2022-08-19T02:07:21;92825.13;;;18.64;82.19
15568;BME280;7885;42.596;23.044;2022-08-19T02:09:48;92837.13;;;18.71;82.86
15568;BME280;7885;42.596;23.044;2022-08-19T02:12:15;92823.41;;;18.58;83.61
15568;BME280;7885;42.596;23.044;2022-08-19T02:14:43;92841.59;;;18.77;83.91
15568;BME280;7885;42.596;23.044;2022-08-19T02:17:10;92832.91;;;18.79;82.72
15568;BME280;7885;42.596;23.044;2022-08-19T02:19:36;92834.53;;;18.76;81.40
15568;BME280;7885;42.596;23.044;2022-08-19T02:22:03;92836.34;;;18.70;81.00
15568;BME280;7885;42.596;23.044;2022-08-19T02:24:31;92831.06;;;18.63;81.04
15568;BME280;7885;42.596;23.044;2022-08-19T02:26:57;92833.19;;;18.59;81.80
15568;BME280;7885;42.596;23.044;2022-08-19T02:29:25;92845.78;;;18.47;83.94
15568;BME280;7885;42.596;23.044;2022-08-19T02:31:53;92839.03;;;18.48;83.70
15568;BME280;7885;42.596;23.044;2022-08-19T02:34:19;92849.19;;;18.51;84.00
15568;BME280;7885;42.596;23.044;2022-08-19T02:36:46;92851.94;;;18.51;84.46
15568;BME280;7885;42.596;23.044;2022-08-19T02:39:13;92844.22;;;18.46;82.95
15568;BME280;7885;42.596;23.044;2022-08-19T02:41:39;92837.28;;;18.42;83.10
15568;BME280;7885;42.596;23.044;2022-08-19T02:44:06;92842.25;;;18.47;84.57
15568;BME280;7885;42.596;23.044;2022-08-19T02:46:33;92829.25;;;18.47;85.31
15568;BME280;7885;42.596;23.044;2022-08-19T02:49:03;92827.47;;;18.53;84.44
15568;BME280;7885;42.596;23.044;2022-08-19T02:54:52;92829.69;;;18.46;81.67
15568;BME280;7885;42.596;23.044;2022-08-19T02:57:22;92803.63;;;18.25;80.79
15568;BME280;7885;42.596;23.044;2022-08-19T02:59:49;92832.25;;;18.40;81.95
15568;BME280;7885;42.596;23.044;2022-08-19T03:02:16;92806.63;;;18.18;82.35
15568;BME280;7885;42.596;23.044;2022-08-19T03:04:45;92837.09;;;18.36;82.16
15568;BME280;7885;42.596;23.044;2022-08-19T03:07:14;92845.91;;;18.31;81.90
15568;BME280;7885;42.596;23.044;2022-08-19T03:09:42;92843.41;;;18.24;83.62
15568;BME280;7885;42.596;23.044;2022-08-19T03:12:09;92850.69;;;18.18;85.28
15568;BME280;7885;42.596;23.044;2022-08-19T03:14:37;92854.66;;;18.17;85.84
15568;BME280;7885;42.596;23.044;2022-08-19T03:20:27;92849.69;;;18.25;86.11
15568;BME280;7885;42.596;23.044;2022-08-19T03:22:53;92855.41;;;18.17;83.96
15568;BME280;7885;42.596;23.044;2022-08-19T03:25:20;92856.66;;;18.04;84.20
15568;BME280;7885;42.596;23.044;2022-08-19T03:27:47;92850.38;;;18.03;87.21
15568;BME280;7885;42.596;23.044;2022-08-19T03:30:14;92849.28;;;18.01;87.04
15568;BME280;7885;42.596;23.044;2022-08-19T03:32:41;92852.81;;;18.01;86.91
15568;BME280;7885;42.596;23.044;2022-08-19T03:35:08;92862.28;;;18.13;86.40
15568;BME280;7885;42.596;23.044;2022-08-19T03:37:36;92861.03;;;18.14;83.63
15568;BME280;7885;42.596;23.044;2022-08-19T03:40:03;92834.97;;;17.93;82.71
15568;BME280;7885;42.596;23.044;2022-08-19T03:42:30;92866.47;;;18.05;83.17
15568;BME280;7885;42.596;23.044;2022-08-19T03:44:57;92868.13;;;18.02;86.02
15568;BME280;7885;42.596;23.044;2022-08-19T03:47:24;92845.34;;;17.77;87.21
15568;BME280;7885;42.596;23.044;2022-08-19T03:49:51;92872.09;;;17.89;87.67
15568;BME280;7885;42.596;23.044;2022-08-19T03:52:18;92865.50;;;17.74;87.88
15568;BME280;7885;42.596;23.044;2022-08-19T03:54:46;92868.56;;;17.76;90.58
15568;BME280;7885;42.596;23.044;2022-08-19T03:57:12;92866.59;;;17.63;89.67
15568;BME280;7885;42.596;23.044;2022-08-19T03:59:39;92881.34;;;17.70;88.42
15568;BME280;7885;42.596;23.044;2022-08-19T04:02:08;92872.78;;;17.67;90.47
15568;BME280;7885;42.596;23.044;2022-08-19T04:04:36;92873.97;;;17.66;91.30
15568;BME280;7885;42.596;23.044;2022-08-19T04:07:04;92828.22;;;17.31;90.76
15568;BME280;7885;42.596;23.044;2022-08-19T04:09:31;92877.59;;;17.63;91.04
15568;BME280;7885;42.596;23.044;2022-08-19T04:12:00;92883.31;;;17.69;90.82
15568;BME280;7885;42.596;23.044;2022-08-19T04:14:29;92883.56;;;17.75;90.49
15568;BME280;7885;42.596;23.044;2022-08-19T04:16:57;92890.38;;;17.83;90.06
15568;BME280;7885;42.596;23.044;2022-08-19T04:19:25;92891.69;;;17.91;89.65
15568;BME280;7885;42.596;23.044;2022-08-19T04:21:53;92898.44;;;18.02;90.03
15568;BME280;7885;42.596;23.044;2022-08-19T04:24:22;92906.66;;;18.15;90.62
15568;BME280;7885;42.596;23.044;2022-08-19T04:26:49;92873.72;;;18.11;89.74
15568;BME280;7885;42.596;23.044;2022-08-19T04:29:20;92897.38;;;18.34;89.10
15568;BME280;7885;42.596;23.044;2022-08-19T04:31:50;92908.16;;;18.41;88.54
15568;BME280;7885;42.596;23.044;2022-08-19T04:34:20;92868.97;;;18.37;89.07
15568;BME280;7885;42.596;23.044;2022-08-19T04:36:49;92882.47;;;18.57;88.94
15568;BME280;7885;42.596;23.044;2022-08-19T04:39:25;92855.03;;;18.53;88.59
15568;BME280;7885;42.596;23.044;2022-08-19T04:42:14;92892.41;;;18.89;88.41
15568;BME280;7885;42.596;23.044;2022-08-19T04:45:00;92877.41;;;18.90;88.21
15568;BME280;7885;42.596;23.044;2022-08-19T04:47:27;92886.41;;;19.03;87.64
15568;BME280;7885;42.596;23.044;2022-08-19T04:49:56;92895.38;;;19.16;87.47
15568;BME280;7885;42.596;23.044;2022-08-19T04:52:23;92891.91;;;19.25;87.01
15568;BME280;7885;42.596;23.044;2022-08-19T04:54:50;92883.84;;;19.30;86.23
15568;BME280;7885;42.596;23.044;2022-08-19T04:57:17;92894.38;;;19.44;86.20
15568;BME280;7885;42.596;23.044;2022-08-19T04:59:44;92885.97;;;19.48;86.37
15568;BME280;7885;42.596;23.044;2022-08-19T05:02:12;92896.00;;;19.63;84.77
15568;BME280;7885;42.596;23.044;2022-08-19T05:04:39;92848.34;;;19.41;84.63
15568;BME280;7885;42.596;23.044;2022-08-19T05:07:06;92877.34;;;19.77;84.35
15568;BME280;7885;42.596;23.044;2022-08-19T05:09:34;92894.59;;;19.90;84.04
15568;BME280;7885;42.596;23.044;2022-08-19T05:12:01;92839.38;;;19.59;83.21
15568;BME280;7885;42.596;23.044;2022-08-19T05:14:28;92899.91;;;20.06;82.97
15568;BME280;7885;42.596;23.044;2022-08-19T05:16:55;92812.88;;;19.61;81.50
15568;BME280;7885;42.596;23.044;2022-08-19T05:19:23;92901.50;;;20.25;81.30
15568;BME280;7885;42.596;23.044;2022-08-19T05:22:07;92869.25;;;20.22;81.51
15568;BME280;7885;42.596;23.044;2022-08-19T05:24:51;92905.91;;;20.53;81.49
15568;BME280;7885;42.596;23.044;2022-08-19T05:27:18;92908.69;;;20.62;81.22
15568;BME280;7885;42.596;23.044;2022-08-19T05:29:45;92905.19;;;20.71;80.56
15568;BME280;7885;42.596;23.044;2022-08-19T05:32:12;92907.50;;;20.82;80.12
15568;BME280;7885;42.596;23.044;2022-08-19T05:34:40;92865.06;;;20.57;80.18
15568;BME280;7885;42.596;23.044;2022-08-19T05:37:07;92897.19;;;20.91;80.14
15568;BME280;7885;42.596;23.044;2022-08-19T05:39:36;92907.81;;;21.02;79.18
15568;BME280;7885;42.596;23.044;2022-08-19T05:42:06;92888.75;;;21.04;78.78
15568;BME280;7885;42.596;23.044;2022-08-19T05:44:37;92906.00;;;21.26;78.00
15568;BME280;7885;42.596;23.044;2022-08-19T05:47:06;92907.81;;;21.38;76.34
15568;BME280;7885;42.596;23.044;2022-08-19T05:49:35;92901.03;;;21.48;76.14
15568;BME280;7885;42.596;23.044;2022-08-19T05:52:06;92863.06;;;21.31;75.45
15568;BME280;7885;42.596;23.044;2022-08-19T05:54:33;92889.81;;;21.61;75.47
15568;BME280;7885;42.596;23.044;2022-08-19T05:57:01;92913.59;;;21.86;75.10
15568;BME280;7885;42.596;23.044;2022-08-19T05:59:28;92898.81;;;21.89;74.59
15568;BME280;7885;42.596;23.044;2022-08-19T06:01:55;92903.06;;;22.08;74.59
15568;BME280;7885;42.596;23.044;2022-08-19T06:04:22;92895.38;;;22.12;72.65
15568;BME280;7885;42.596;23.044;2022-08-19T06:06:51;92904.72;;;22.24;71.75
15568;BME280;7885;42.596;23.044;2022-08-19T06:09:19;92846.78;;;21.93;71.74
15568;BME280;7885;42.596;23.044;2022-08-19T06:11:48;92900.34;;;22.32;71.74
15568;BME280;7885;42.596;23.044;2022-08-19T06:14:17;92898.66;;;22.34;72.32
15568;BME280;7885;42.596;23.044;2022-08-19T06:16:46;92913.84;;;22.48;72.90
15568;BME280;7885;42.596;23.044;2022-08-19T06:19:14;92890.91;;;22.47;71.85
15568;BME280;7885;42.596;23.044;2022-08-19T06:21:43;92909.03;;;22.57;69.19
15568;BME280;7885;42.596;23.044;2022-08-19T06:24:12;92895.13;;;22.67;67.97
15568;BME280;7885;42.596;23.044;2022-08-19T06:26:43;92883.78;;;22.79;68.86
15568;BME280;7885;42.596;23.044;2022-08-19T06:29:12;92877.69;;;22.90;68.32
15568;BME280;7885;42.596;23.044;2022-08-19T06:31:42;92878.63;;;23.10;68.88
15568;BME280;7885;42.596;23.044;2022-08-19T06:34:09;92885.56;;;23.30;66.84
15568;BME280;7885;42.596;23.044;2022-08-19T06:36:39;92903.75;;;23.54;66.12
15568;BME280;7885;42.596;23.044;2022-08-19T06:39:09;92907.59;;;23.72;67.26
15568;BME280;7885;42.596;23.044;2022-08-19T06:41:37;92908.06;;;23.85;67.91
15568;BME280;7885;42.596;23.044;2022-08-19T06:44:07;92912.94;;;24.04;67.59
15568;BME280;7885;42.596;23.044;2022-08-19T06:46:35;92900.41;;;24.09;67.69
15568;BME280;7885;42.596;23.044;2022-08-19T06:59:17;92911.53;;;24.58;60.15
15568;BME280;7885;42.596;23.044;2022-08-19T07:01:46;92913.25;;;24.71;60.85
15568;BME280;7885;42.596;23.044;2022-08-19T07:04:14;92890.41;;;24.67;61.03
15568;BME280;7885;42.596;23.044;2022-08-19T07:06:41;92914.56;;;24.90;58.72
15568;BME280;7885;42.596;23.044;2022-08-19T07:09:10;92906.75;;;24.94;56.53
15568;BME280;7885;42.596;23.044;2022-08-19T07:11:38;92916.41;;;25.13;56.23
15568;BME280;7885;42.596;23.044;2022-08-19T07:14:05;92914.50;;;25.25;57.47
15568;BME280;7885;42.596;23.044;2022-08-19T07:16:34;92902.16;;;25.31;56.99
15568;BME280;7885;42.596;23.044;2022-08-19T07:19:01;92909.28;;;25.52;56.93
15568;BME280;7885;42.596;23.044;2022-08-19T07:21:28;92908.44;;;25.67;56.79
15568;BME280;7885;42.596;23.044;2022-08-19T07:23:56;92911.03;;;25.76;55.76
15568;BME280;7885;42.596;23.044;2022-08-19T07:26:25;92885.69;;;25.74;55.53
15568;BME280;7885;42.596;23.044;2022-08-19T07:28:53;92901.16;;;26.00;56.43
15568;BME280;7885;42.596;23.044;2022-08-19T07:31:22;92905.06;;;26.14;57.84
15568;BME280;7885;42.596;23.044;2022-08-19T07:33:53;92902.97;;;26.29;55.54
15568;BME280;7885;42.596;23.044;2022-08-19T07:36:23;92906.66;;;26.46;53.92
15568;BME280;7885;42.596;23.044;2022-08-19T07:38:51;92896.03;;;26.50;54.93
15568;BME280;7885;42.596;23.044;2022-08-19T07:41:20;92912.38;;;26.69;55.37
15568;BME280;7885;42.596;23.044;2022-08-19T07:43:48;92882.44;;;26.69;57.42
15568;BME280;7885;42.596;23.044;2022-08-19T07:46:16;92913.66;;;27.10;56.26
15568;BME280;7885;42.596;23.044;2022-08-19T07:48:44;92890.34;;;27.13;55.34
15568;BME280;7885;42.596;23.044;2022-08-19T07:51:15;92911.81;;;27.44;54.88
15568;BME280;7885;42.596;23.044;2022-08-19T07:53:42;92910.34;;;27.65;55.31
15568;BME280;7885;42.596;23.044;2022-08-19T07:56:11;92887.47;;;27.55;54.56
15568;BME280;7885;42.596;23.044;2022-08-19T07:58:41;92911.19;;;27.93;52.63
15568;BME280;7885;42.596;23.044;2022-08-19T08:01:11;92901.34;;;28.09;53.67
15568;BME280;7885;42.596;23.044;2022-08-19T08:03:39;92910.00;;;28.28;53.00
15568;BME280;7885;42.596;23.044;2022-08-19T08:06:25;92912.56;;;28.42;50.42
15568;BME280;7885;42.596;23.044;2022-08-19T08:09:10;92909.50;;;28.51;48.77
15568;BME280;7885;42.596;23.044;2022-08-19T08:11:37;92905.97;;;28.68;49.38
15568;BME280;7885;42.596;23.044;2022-08-19T08:14:04;92901.34;;;28.76;46.69
15568;BME280;7885;42.596;23.044;2022-08-19T08:16:33;92906.94;;;28.92;48.05
15568;BME280;7885;42.596;23.044;2022-08-19T08:19:00;92897.97;;;29.16;46.18
15568;BME280;7885;42.596;23.044;2022-08-19T08:21:28;92898.22;;;29.29;44.63
15568;BME280;7885;42.596;23.044;2022-08-19T08:23:55;92901.41;;;29.55;43.85
15568;BME280;7885;42.596;23.044;2022-08-19T08:26:22;92896.03;;;29.63;42.96
15568;BME280;7885;42.596;23.044;2022-08-19T08:28:50;92894.44;;;29.79;41.93
15568;BME280;7885;42.596;23.044;2022-08-19T08:31:17;92897.19;;;29.90;42.08
15568;BME280;7885;42.596;23.044;2022-08-19T08:33:45;92858.16;;;29.92;41.61
15568;BME280;7885;42.596;23.044;2022-08-19T08:36:13;92888.72;;;30.36;41.38
15568;BME280;7885;42.596;23.044;2022-08-19T08:38:43;92874.34;;;30.51;40.10
15568;BME280;7885;42.596;23.044;2022-08-19T08:47:57;92884.41;;;31.43;37.81
15568;BME280;7885;42.596;23.044;2022-08-19T08:50:29;92885.06;;;31.74;37.42
15568;BME280;7885;42.596;23.044;2022-08-19T08:53:02;92885.19;;;32.06;37.75
15568;BME280;7885;42.596;23.044;2022-08-19T08:55:32;92877.44;;;32.43;39.17
15568;BME280;7885;42.596;23.044;2022-08-19T08:58:03;92882.72;;;32.66;35.86
15568;BME280;7885;42.596;23.044;2022-08-19T09:00:33;92874.88;;;32.90;34.50
15568;BME280;7885;42.596;23.044;2022-08-19T09:03:02;92877.59;;;32.96;34.62
15568;BME280;7885;42.596;23.044;2022-08-19T09:05:36;92861.47;;;33.10;35.22
15568;BME280;7885;42.596;23.044;2022-08-19T09:08:13;92871.81;;;33.33;36.22
15568;BME280;7885;42.596;23.044;2022-08-19T09:10:48;92868.97;;;33.73;33.56
15568;BME280;7885;42.596;23.044;2022-08-19T09:13:23;92829.25;;;33.58;32.81
15568;BME280;7885;42.596;23.044;2022-08-19T09:15:57;92870.19;;;34.11;32.64
15568;BME280;7885;42.596;23.044;2022-08-19T09:18:38;92864.97;;;34.49;31.07
15568;BME280;7885;42.596;23.044;2022-08-19T09:21:06;92840.47;;;34.51;32.05
15568;BME280;7885;42.596;23.044;2022-08-19T09:23:34;92852.38;;;34.71;30.16
15568;BME280;7885;42.596;23.044;2022-08-19T09:26:06;92865.63;;;34.76;29.93
15568;BME280;7885;42.596;23.044;2022-08-19T09:28:33;92850.72;;;34.96;30.43
15568;BME280;7885;42.596;23.044;2022-08-19T09:31:02;92815.19;;;34.87;28.63
15568;BME280;7885;42.596;23.044;2022-08-19T09:33:29;92855.44;;;35.22;28.15
15568;BME280;7885;42.596;23.044;2022-08-19T09:36:05;92835.16;;;35.10;29.05
15568;BME280;7885;42.596;23.044;2022-08-19T09:38:33;92855.44;;;35.78;30.34
15568;BME280;7885;42.596;23.044;2022-08-19T09:41:06;92839.34;;;36.09;27.02
15568;BME280;7885;42.596;23.044;2022-08-19T09:43:33;92847.94;;;36.39;27.86
15568;BME280;7885;42.596;23.044;2022-08-19T09:46:02;92848.09;;;36.41;25.84
15568;BME280;7885;42.596;23.044;2022-08-19T09:48:31;92835.97;;;36.18;26.85
15568;BME280;7885;42.596;23.044;2022-08-19T09:51:03;92837.88;;;36.31;24.99
15568;BME280;7885;42.596;23.044;2022-08-19T09:53:30;92844.03;;;36.58;26.07
15568;BME280;7885;42.596;23.044;2022-08-19T09:55:57;92838.72;;;36.62;24.43
15568;BME280;7885;42.596;23.044;2022-08-19T09:58:25;92845.19;;;37.08;23.60
15568;BME280;7885;42.596;23.044;2022-08-19T10:00:53;92829.88;;;37.26;22.84
15568;BME280;7885;42.596;23.044;2022-08-19T10:03:20;92823.94;;;37.47;22.62
15568;BME280;7885;42.596;23.044;2022-08-19T10:05:46;92808.84;;;37.36;20.85
15568;BME280;7885;42.596;23.044;2022-08-19T10:08:19;92820.22;;;37.21;20.98
15568;BME280;7885;42.596;23.044;2022-08-19T10:10:46;92823.41;;;36.80;21.95
15568;BME280;7885;42.596;23.044;2022-08-19T10:13:15;92833.25;;;37.32;24.19
15568;BME280;7885;42.596;23.044;2022-08-19T10:15:45;92822.84;;;37.50;22.70
15568;BME280;7885;42.596;23.044;2022-08-19T10:18:12;92817.34;;;37.29;22.50
15568;BME280;7885;42.596;23.044;2022-08-19T10:20:38;92825.88;;;36.68;22.64
15568;BME280;7885;42.596;23.044;2022-08-19T10:23:07;92820.53;;;36.50;23.60
15568;BME280;7885;42.596;23.044;2022-08-19T10:25:33;92811.72;;;36.02;24.20
15568;BME280;7885;42.596;23.044;2022-08-19T10:28:00;92823.84;;;36.10;24.04
15568;BME280;7885;42.596;23.044;2022-08-19T10:30:27;92784.38;;;35.61;25.57
15568;BME280;7885;42.596;23.044;2022-08-19T10:32:55;92802.56;;;35.81;24.01
15568;BME280;7885;42.596;23.044;2022-08-19T10:35:22;92777.44;;;35.41;24.97
15568;BME280;7885;42.596;23.044;2022-08-19T10:37:50;92803.53;;;35.47;26.36
15568;BME280;7885;42.596;23.044;2022-08-19T10:43:38;92809.97;;;35.56;25.10
15568;BME280;7885;42.596;23.044;2022-08-19T10:46:06;92793.84;;;35.71;24.91
15568;BME280;7885;42.596;23.044;2022-08-19T10:48:35;92790.16;;;35.56;25.13
15568;BME280;7885;42.596;23.044;2022-08-19T10:51:03;92806.31;;;35.68;24.54
15568;BME280;7885;42.596;23.044;2022-08-19T10:53:47;92799.34;;;36.35;24.75
15568;BME280;7885;42.596;23.044;2022-08-19T10:56:14;92801.66;;;36.90;23.03
15568;BME280;7885;42.596;23.044;2022-08-19T10:58:59;92797.31;;;36.66;23.53
15568;BME280;7885;42.596;23.044;2022-08-19T11:01:29;92797.34;;;36.81;24.73
15568;BME280;7885;42.596;23.044;2022-08-19T11:04:00;92795.06;;;36.80;23.01
15568;BME280;7885;42.596;23.044;2022-08-19T11:06:27;92776.31;;;36.62;23.05
15568;BME280;7885;42.596;23.044;2022-08-19T11:08:55;92761.22;;;36.67;23.59
15568;BME280;7885;42.596;23.044;2022-08-19T11:11:22;92783.13;;;37.19;25.16
15568;BME280;7885;42.596;23.044;2022-08-19T11:13:49;92786.59;;;37.73;23.75
15568;BME280;7885;42.596;23.044;2022-08-19T11:16:19;92783.19;;;38.14;23.23
15568;BME280;7885;42.596;23.044;2022-08-19T11:18:49;92751.03;;;38.04;21.72
15568;BME280;7885;42.596;23.044;2022-08-19T11:21:20;92774.34;;;38.42;20.87
15568;BME280;7885;42.596;23.044;2022-08-19T11:23:49;92744.47;;;38.26;20.97
15568;BME280;7885;42.596;23.044;2022-08-19T11:26:18;92776.84;;;38.63;21.37
15568;BME280;7885;42.596;23.044;2022-08-19T11:28:45;92771.81;;;38.79;22.46
15568;BME280;7885;42.596;23.044;2022-08-19T11:31:15;92770.53;;;38.48;20.11
15568;BME280;7885;42.596;23.044;2022-08-19T11:33:43;92774.25;;;38.58;20.33
15568;BME280;7885;42.596;23.044;2022-08-19T11:36:10;92775.63;;;38.74;20.40
15568;BME280;7885;42.596;23.044;2022-08-19T11:38:39;92753.09;;;38.11;20.58
15568;BME280;7885;42.596;23.044;2022-08-19T11:41:08;92762.41;;;38.04;22.88
15568;BME280;7885;42.596;23.044;2022-08-19T11:43:35;92757.44;;;38.45;20.10
15568;BME280;7885;42.596;23.044;2022-08-19T11:46:04;92758.44;;;38.64;20.39
15568;BME280;7885;42.596;23.044;2022-08-19T11:48:34;92697.72;;;38.45;21.57
15568;BME280;7885;42.596;23.044;2022-08-19T11:51:05;92699.94;;;38.54;21.64
15568;BME280;7885;42.596;23.044;2022-08-19T11:53:33;92751.44;;;39.24;20.84
15568;BME280;7885;42.596;23.044;2022-08-19T11:59:23;92731.94;;;38.29;20.88
15568;BME280;7885;42.596;23.044;2022-08-19T12:01:52;92740.03;;;38.40;20.74
15568;BME280;7885;42.596;23.044;2022-08-19T12:04:18;92685.38;;;38.17;21.09
15568;BME280;7885;42.596;23.044;2022-08-19T12:06:45;92715.25;;;38.01;21.18
15568;BME280;7885;42.596;23.044;2022-08-19T12:09:12;92727.53;;;38.04;22.61
15568;BME280;7885;42.596;23.044;2022-08-19T12:11:40;92739.59;;;37.24;22.62
15568;BME280;7885;42.596;23.044;2022-08-19T12:14:10;92687.66;;;36.46;23.05
15568;BME280;7885;42.596;23.044;2022-08-19T12:16:38;92728.84;;;36.39;22.43
15568;BME280;7885;42.596;23.044;2022-08-19T12:19:06;92698.41;;;36.17;22.48
15568;BME280;7885;42.596;23.044;2022-08-19T12:21:34;92719.59;;;36.92;23.99
15568;BME280;7885;42.596;23.044;2022-08-19T12:24:03;92712.31;;;37.36;22.14
15568;BME280;7885;42.596;23.044;2022-08-19T12:26:30;92726.13;;;37.48;22.49
15568;BME280;7885;42.596;23.044;2022-08-19T12:28:57;92714.63;;;37.15;22.94
15568;BME280;7885;42.596;23.044;2022-08-19T12:31:25;92692.22;;;36.57;22.94
15568;BME280;7885;42.596;23.044;2022-08-19T12:33:55;92716.22;;;36.71;22.59
15568;BME280;7885;42.596;23.044;2022-08-19T12:36:22;92717.69;;;36.79;23.11
15568;BME280;7885;42.596;23.044;2022-08-19T12:38:49;92698.25;;;36.68;23.32
15568;BME280;7885;42.596;23.044;2022-08-19T12:41:16;92707.13;;;36.42;22.48
15568;BME280;7885;42.596;23.044;2022-08-19T12:43:44;92681.41;;;36.63;22.57
15568;BME280;7885;42.596;23.044;2022-08-19T12:46:11;92702.50;;;37.22;22.40
15568;BME280;7885;42.596;23.044;2022-08-19T12:48:39;92700.88;;;37.59;21.49
15568;BME280;7885;42.596;23.044;2022-08-19T12:51:12;92704.56;;;37.77;23.26
15568;BME280;7885;42.596;23.044;2022-08-19T12:53:39;92706.16;;;37.63;22.90
15568;BME280;7885;42.596;23.044;2022-08-19T12:56:06;92697.34;;;37.36;23.81
15568;BME280;7885;42.596;23.044;2022-08-19T12:58:33;92696.38;;;37.49;22.89
15568;BME280;7885;42.596;23.044;2022-08-19T13:01:06;92699.13;;;37.16;21.67
15568;BME280;7885;42.596;23.044;2022-08-19T13:03:32;92691.22;;;36.92;22.22
15568;BME280;7885;42.596;23.044;2022-08-19T13:05:59;92687.84;;;36.71;23.10
15568;BME280;7885;42.596;23.044;2022-08-19T13:08:27;92607.16;;;36.11;23.47
15568;BME280;7885;42.596;23.044;2022-08-19T13:10:54;92685.41;;;36.67;23.32
15568;BME280;7885;42.596;23.044;2022-08-19T13:13:21;92674.16;;;37.07;24.50
15568;BME280;7885;42.596;23.044;2022-08-19T13:15:48;92645.72;;;37.22;24.91
15568;BME280;7885;42.596;23.044;2022-08-19T13:18:14;92662.59;;;37.68;24.51
15568;BME280;7885;42.596;23.044;2022-08-19T13:20:42;92671.47;;;38.04;22.77
15568;BME280;7885;42.596;23.044;2022-08-19T13:23:09;92670.16;;;38.30;23.64
15568;BME280;7885;42.596;23.044;2022-08-19T13:25:37;92663.44;;;38.42;23.18
15568;BME280;7885;42.596;23.044;2022-08-19T13:28:04;92661.75;;;38.39;21.36
15568;BME280;7885;42.596;23.044;2022-08-19T13:30:32;92669.38;;;38.29;23.00
15568;BME280;7885;42.596;23.044;2022-08-19T13:33:17;92676.88;;;37.85;21.72
15568;BME280;7885;42.596;23.044;2022-08-19T13:35:46;92635.94;;;37.16;22.71
15568;BME280;7885;42.596;23.044;2022-08-19T13:38:15;92619.31;;;37.44;23.71
15568;BME280;7885;42.596;23.044;2022-08-19T13:40:44;92664.31;;;37.63;21.73